sensor_id;sensor_type;location;lat;lon;timestamp;temperature;humidity
71436;SHT31;59251;51.326;12.370;2022-10-16T00:01:54;15.80;91.86
71436;SHT31;59251;51.326;12.370;2022-10-16T00:04:19;15.77;92.01
71436;SHT31;59251;51.326;12.370;2022-10-16T00:06:45;15.86;91.79
71436;SHT31;59251;51.326;12.370;2022-10-16T00:09:10;15.77;92.09
71436;SHT31;59251;51.326;12.370;2022-10-16T00:11:38;15.79;92.06
71436;SHT31;59251;51.326;12.370;2022-10-16T00:14:08;15.76;92.30
71436;SHT31;59251;51.326;12.370;2022-10-16T00:16:34;15.65;92.44
71436;SHT31;59251;51.326;12.370;2022-10-16T00:18:59;15.59;92.56
71436;SHT31;59251;51.326;12.370;2022-10-16T00:21:27;15.66;92.62
71436;SHT31;59251;51.326;12.370;2022-10-16T00:23:55;15.70;92.35
71436;SHT31;59251;51.326;12.370;2022-10-16T00:26:21;15.67;92.43
71436;SHT31;59251;51.326;12.370;2022-10-16T00:28:47;15.82;92.09
71436;SHT31;59251;51.326;12.370;2022-10-16T00:31:13;15.87;91.57
71436;SHT31;59251;51.326;12.370;2022-10-16T00:33:40;15.87;91.69
71436;SHT31;59251;51.326;12.370;2022-10-16T00:36:07;15.93;91.54
71436;SHT31;59251;51.326;12.370;2022-10-16T00:38:33;15.98;91.39
71436;SHT31;59251;51.326;12.370;2022-10-16T00:40:59;15.93;91.54
71436;SHT31;59251;51.326;12.370;2022-10-16T00:43:38;15.96;91.52
71436;SHT31;59251;51.326;12.370;2022-10-16T00:46:27;15.96;91.55
71436;SHT31;59251;51.326;12.370;2022-10-16T00:51:33;15.91;91.61
71436;SHT31;59251;51.326;12.370;2022-10-16T00:53:59;16.04;91.26
71436;SHT31;59251;51.326;12.370;2022-10-16T00:56:25;16.03;91.27
71436;SHT31;59251;51.326;12.370;2022-10-16T00:58:50;15.96;91.60
71436;SHT31;59251;51.326;12.370;2022-10-16T01:01:16;16.01;91.44
71436;SHT31;59251;51.326;12.370;2022-10-16T01:03:41;15.91;91.82
71436;SHT31;59251;51.326;12.370;2022-10-16T01:06:17;15.91;91.69
71436;SHT31;59251;51.326;12.370;2022-10-16T01:14:22;15.83;91.99
71436;SHT31;59251;51.326;12.370;2022-10-16T01:17:04;15.83;91.99
71436;SHT31;59251;51.326;12.370;2022-10-16T01:19:44;15.89;91.81
71436;SHT31;59251;51.326;12.370;2022-10-16T01:22:14;15.90;91.88
71436;SHT31;59251;51.326;12.370;2022-10-16T01:24:43;15.93;91.80
71436;SHT31;59251;51.326;12.370;2022-10-16T01:27:13;15.90;91.91
71436;SHT31;59251;51.326;12.370;2022-10-16T01:34:50;15.79;92.37
71436;SHT31;59251;51.326;12.370;2022-10-16T01:37:29;15.73;92.47
71436;SHT31;59251;51.326;12.370;2022-10-16T01:39:59;15.74;92.67
71436;SHT31;59251;51.326;12.370;2022-10-16T01:42:30;15.71;92.71
71436;SHT31;59251;51.326;12.370;2022-10-16T01:44:58;15.74;92.79
71436;SHT31;59251;51.326;12.370;2022-10-16T01:47:26;15.76;92.74
71436;SHT31;59251;51.326;12.370;2022-10-16T01:49:53;15.67;93.11
71436;SHT31;59251;51.326;12.370;2022-10-16T01:52:23;15.56;93.48
71436;SHT31;59251;51.326;12.370;2022-10-16T01:54:52;15.60;93.63
71436;SHT31;59251;51.326;12.370;2022-10-16T01:57:20;15.52;93.85
71436;SHT31;59251;51.326;12.370;2022-10-16T01:59:49;15.43;94.03
71436;SHT31;59251;51.326;12.370;2022-10-16T02:02:17;15.50;93.99
71436;SHT31;59251;51.326;12.370;2022-10-16T02:04:54;15.43;94.29
71436;SHT31;59251;51.326;12.370;2022-10-16T02:07:20;15.46;94.35
71436;SHT31;59251;51.326;12.370;2022-10-16T02:09:46;15.42;94.25
71436;SHT31;59251;51.326;12.370;2022-10-16T02:12:26;15.41;94.45
71436;SHT31;59251;51.326;12.370;2022-10-16T02:14:53;15.43;94.34
71436;SHT31;59251;51.326;12.370;2022-10-16T02:17:19;15.48;94.33
71436;SHT31;59251;51.326;12.370;2022-10-16T02:19:46;15.41;94.38
71436;SHT31;59251;51.326;12.370;2022-10-16T02:22:20;15.41;94.41
71436;SHT31;59251;51.326;12.370;2022-10-16T02:25:03;15.48;94.29
71436;SHT31;59251;51.326;12.370;2022-10-16T02:30:51;15.46;94.44
71436;SHT31;59251;51.326;12.370;2022-10-16T02:33:19;15.39;94.61
71436;SHT31;59251;51.326;12.370;2022-10-16T02:35:47;15.45;94.48
71436;SHT31;59251;51.326;12.370;2022-10-16T02:38:14;15.43;94.58
71436;SHT31;59251;51.326;12.370;2022-10-16T02:40:41;15.38;94.60
71436;SHT31;59251;51.326;12.370;2022-10-16T02:43:07;15.34;94.83
71436;SHT31;59251;51.326;12.370;2022-10-16T02:45:33;15.32;94.87
71436;SHT31;59251;51.326;12.370;2022-10-16T02:47:59;15.28;95.03
71436;SHT31;59251;51.326;12.370;2022-10-16T02:50:24;15.22;95.25
71436;SHT31;59251;51.326;12.370;2022-10-16T02:52:50;15.25;95.05
71436;SHT31;59251;51.326;12.370;2022-10-16T02:55:16;15.21;95.21
71436;SHT31;59251;51.326;12.370;2022-10-16T02:57:41;15.18;95.43
71436;SHT31;59251;51.326;12.370;2022-10-16T03:00:12;15.17;95.54
71436;SHT31;59251;51.326;12.370;2022-10-16T03:02:37;15.18;95.56
71436;SHT31;59251;51.326;12.370;2022-10-16T03:05:03;15.12;95.66
71436;SHT31;59251;51.326;12.370;2022-10-16T03:07:29;15.17;95.58
71436;SHT31;59251;51.326;12.370;2022-10-16T03:09:54;15.07;95.90
71436;SHT31;59251;51.326;12.370;2022-10-16T03:12:20;15.05;96.01
71436;SHT31;59251;51.326;12.370;2022-10-16T03:14:46;15.05;95.97
71436;SHT31;59251;51.326;12.370;2022-10-16T03:17:12;15.10;95.95
71436;SHT31;59251;51.326;12.370;2022-10-16T03:19:38;15.07;96.10
71436;SHT31;59251;51.326;12.370;2022-10-16T03:22:03;15.04;96.15
71436;SHT31;59251;51.326;12.370;2022-10-16T03:24:29;15.04;96.23
71436;SHT31;59251;51.326;12.370;2022-10-16T03:26:54;14.97;96.45
71436;SHT31;59251;51.326;12.370;2022-10-16T03:29:20;14.95;96.70
71436;SHT31;59251;51.326;12.370;2022-10-16T03:31:45;14.97;96.49
71436;SHT31;59251;51.326;12.370;2022-10-16T03:34:11;15.00;96.29
71436;SHT31;59251;51.326;12.370;2022-10-16T03:36:36;15.07;96.22
71436;SHT31;59251;51.326;12.370;2022-10-16T03:39:02;15.04;96.18
71436;SHT31;59251;51.326;12.370;2022-10-16T03:41:27;15.04;96.15
71436;SHT31;59251;51.326;12.370;2022-10-16T03:43:52;15.10;96.04
71436;SHT31;59251;51.326;12.370;2022-10-16T03:46:18;15.02;96.20
71436;SHT31;59251;51.326;12.370;2022-10-16T03:48:43;15.12;95.96
71436;SHT31;59251;51.326;12.370;2022-10-16T03:51:09;15.18;95.63
71436;SHT31;59251;51.326;12.370;2022-10-16T03:53:34;15.11;95.73
71436;SHT31;59251;51.326;12.370;2022-10-16T03:55:59;15.14;95.80
71436;SHT31;59251;51.326;12.370;2022-10-16T03:58:25;15.14;95.79
71436;SHT31;59251;51.326;12.370;2022-10-16T04:00:50;15.07;96.23
71436;SHT31;59251;51.326;12.370;2022-10-16T04:03:16;15.07;96.11
71436;SHT31;59251;51.326;12.370;2022-10-16T04:05:42;15.11;96.01
71436;SHT31;59251;51.326;12.370;2022-10-16T04:08:08;15.02;96.29
71436;SHT31;59251;51.326;12.370;2022-10-16T04:10:33;15.04;96.32
71436;SHT31;59251;51.326;12.370;2022-10-16T04:12:58;15.07;96.19
71436;SHT31;59251;51.326;12.370;2022-10-16T04:15:24;15.07;96.21
71436;SHT31;59251;51.326;12.370;2022-10-16T04:17:51;14.94;96.45
71436;SHT31;59251;51.326;12.370;2022-10-16T04:20:16;15.01;96.21
71436;SHT31;59251;51.326;12.370;2022-10-16T04:22:42;15.07;96.20
71436;SHT31;59251;51.326;12.370;2022-10-16T04:25:07;15.01;96.07
71436;SHT31;59251;51.326;12.370;2022-10-16T04:27:33;15.05;95.93
71436;SHT31;59251;51.326;12.370;2022-10-16T04:29:59;15.02;95.96
71436;SHT31;59251;51.326;12.370;2022-10-16T04:32:25;14.95;96.40
71436;SHT31;59251;51.326;12.370;2022-10-16T04:34:51;14.88;96.65
71436;SHT31;59251;51.326;12.370;2022-10-16T04:37:16;14.80;97.01
71436;SHT31;59251;51.326;12.370;2022-10-16T04:39:41;14.70;97.31
71436;SHT31;59251;51.326;12.370;2022-10-16T04:42:07;14.87;96.87
71436;SHT31;59251;51.326;12.370;2022-10-16T04:44:32;14.88;96.71
71436;SHT31;59251;51.326;12.370;2022-10-16T04:46:58;14.70;97.04
71436;SHT31;59251;51.326;12.370;2022-10-16T04:49:23;14.69;97.20
71436;SHT31;59251;51.326;12.370;2022-10-16T04:51:48;14.74;97.04
71436;SHT31;59251;51.326;12.370;2022-10-16T04:54:14;14.76;96.85
71436;SHT31;59251;51.326;12.370;2022-10-16T04:56:39;14.77;96.82
71436;SHT31;59251;51.326;12.370;2022-10-16T04:59:16;14.72;96.74
71436;SHT31;59251;51.326;12.370;2022-10-16T05:01:42;14.62;97.25
71436;SHT31;59251;51.326;12.370;2022-10-16T05:04:08;14.63;97.32
71436;SHT31;59251;51.326;12.370;2022-10-16T05:06:34;14.69;96.92
71436;SHT31;59251;51.326;12.370;2022-10-16T05:08:59;14.73;96.89
71436;SHT31;59251;51.326;12.370;2022-10-16T05:11:24;14.67;96.95
71436;SHT31;59251;51.326;12.370;2022-10-16T05:13:50;14.79;96.57
71436;SHT31;59251;51.326;12.370;2022-10-16T05:16:15;14.76;96.56
71436;SHT31;59251;51.326;12.370;2022-10-16T05:18:41;14.81;96.30
71436;SHT31;59251;51.326;12.370;2022-10-16T05:21:06;14.77;96.36
71436;SHT31;59251;51.326;12.370;2022-10-16T05:23:32;14.77;96.29
71436;SHT31;59251;51.326;12.370;2022-10-16T05:25:58;14.80;96.25
71436;SHT31;59251;51.326;12.370;2022-10-16T05:28:28;14.79;96.03
71436;SHT31;59251;51.326;12.370;2022-10-16T05:30:54;14.84;96.01
71436;SHT31;59251;51.326;12.370;2022-10-16T05:33:20;14.90;95.87
71436;SHT31;59251;51.326;12.370;2022-10-16T05:35:46;14.79;95.99
71436;SHT31;59251;51.326;12.370;2022-10-16T05:38:12;14.80;96.10
71436;SHT31;59251;51.326;12.370;2022-10-16T05:40:37;14.74;96.18
71436;SHT31;59251;51.326;12.370;2022-10-16T05:43:03;14.76;96.00
71436;SHT31;59251;51.326;12.370;2022-10-16T05:45:28;14.84;95.59
71436;SHT31;59251;51.326;12.370;2022-10-16T05:47:53;14.84;95.68
71436;SHT31;59251;51.326;12.370;2022-10-16T05:50:19;14.83;95.68
71436;SHT31;59251;51.326;12.370;2022-10-16T05:52:44;14.85;95.33
71436;SHT31;59251;51.326;12.370;2022-10-16T05:55:09;14.85;95.61
71436;SHT31;59251;51.326;12.370;2022-10-16T05:57:35;14.88;95.21
71436;SHT31;59251;51.326;12.370;2022-10-16T06:00:00;14.95;94.83
71436;SHT31;59251;51.326;12.370;2022-10-16T06:02:25;15.02;94.42
71436;SHT31;59251;51.326;12.370;2022-10-16T06:04:51;14.91;94.96
71436;SHT31;59251;51.326;12.370;2022-10-16T06:07:19;15.02;94.65
71436;SHT31;59251;51.326;12.370;2022-10-16T06:09:48;15.10;94.13
71436;SHT31;59251;51.326;12.370;2022-10-16T06:12:13;15.22;93.90
71436;SHT31;59251;51.326;12.370;2022-10-16T06:14:38;15.28;93.74
71436;SHT31;59251;51.326;12.370;2022-10-16T06:17:04;15.20;93.75
71436;SHT31;59251;51.326;12.370;2022-10-16T06:19:29;15.20;93.80
71436;SHT31;59251;51.326;12.370;2022-10-16T06:21:55;15.21;93.78
71436;SHT31;59251;51.326;12.370;2022-10-16T06:24:23;15.31;93.37
71436;SHT31;59251;51.326;12.370;2022-10-16T06:26:48;15.31;93.38
71436;SHT31;59251;51.326;12.370;2022-10-16T06:29:13;15.45;93.02
71436;SHT31;59251;51.326;12.370;2022-10-16T06:31:39;15.59;92.61
71436;SHT31;59251;51.326;12.370;2022-10-16T06:34:04;15.60;92.39
71436;SHT31;59251;51.326;12.370;2022-10-16T06:36:34;15.67;92.14
71436;SHT31;59251;51.326;12.370;2022-10-16T06:38:59;15.73;92.05
71436;SHT31;59251;51.326;12.370;2022-10-16T06:41:25;15.70;92.15
71436;SHT31;59251;51.326;12.370;2022-10-16T06:43:50;15.63;92.20
71436;SHT31;59251;51.326;12.370;2022-10-16T06:46:19;15.66;92.15
71436;SHT31;59251;51.326;12.370;2022-10-16T06:48:45;15.73;91.96
71436;SHT31;59251;51.326;12.370;2022-10-16T06:51:13;15.97;91.30
71436;SHT31;59251;51.326;12.370;2022-10-16T06:53:43;15.86;91.67
71436;SHT31;59251;51.326;12.370;2022-10-16T06:56:13;15.96;91.24
71436;SHT31;59251;51.326;12.370;2022-10-16T06:58:40;15.93;91.22
71436;SHT31;59251;51.326;12.370;2022-10-16T07:01:06;15.85;91.67
71436;SHT31;59251;51.326;12.370;2022-10-16T07:03:32;15.86;91.88
71436;SHT31;59251;51.326;12.370;2022-10-16T07:06:02;15.90;91.70
71436;SHT31;59251;51.326;12.370;2022-10-16T07:08:31;15.97;91.54
71436;SHT31;59251;51.326;12.370;2022-10-16T07:11:10;16.08;91.71
71436;SHT31;59251;51.326;12.370;2022-10-16T07:13:36;16.07;91.63
71436;SHT31;59251;51.326;12.370;2022-10-16T07:16:18;16.10;91.68
71436;SHT31;59251;51.326;12.370;2022-10-16T07:18:43;15.96;92.63
71436;SHT31;59251;51.326;12.370;2022-10-16T07:21:13;15.94;92.79
71436;SHT31;59251;51.326;12.370;2022-10-16T07:23:39;16.01;92.59
71436;SHT31;59251;51.326;12.370;2022-10-16T07:26:06;16.21;92.10
71436;SHT31;59251;51.326;12.370;2022-10-16T07:28:32;16.52;91.03
71436;SHT31;59251;51.326;12.370;2022-10-16T07:31:05;16.56;90.74
71436;SHT31;59251;51.326;12.370;2022-10-16T07:33:33;16.59;90.57
71436;SHT31;59251;51.326;12.370;2022-10-16T07:35:59;16.82;90.06
71436;SHT31;59251;51.326;12.370;2022-10-16T07:38:24;16.71;90.39
71436;SHT31;59251;51.326;12.370;2022-10-16T07:41:04;16.75;90.05
71436;SHT31;59251;51.326;12.370;2022-10-16T07:43:30;16.96;89.64
71436;SHT31;59251;51.326;12.370;2022-10-16T07:45:56;17.00;89.00
71436;SHT31;59251;51.326;12.370;2022-10-16T07:48:22;17.30;88.45
71436;SHT31;59251;51.326;12.370;2022-10-16T07:50:48;17.20;88.51
71436;SHT31;59251;51.326;12.370;2022-10-16T07:53:14;17.38;88.03
71436;SHT31;59251;51.326;12.370;2022-10-16T07:55:40;17.42;87.83
71436;SHT31;59251;51.326;12.370;2022-10-16T07:58:06;17.65;86.75
71436;SHT31;59251;51.326;12.370;2022-10-16T08:00:31;17.54;87.67
71436;SHT31;59251;51.326;12.370;2022-10-16T08:02:58;18.05;86.14
71436;SHT31;59251;51.326;12.370;2022-10-16T08:05:26;18.06;85.89
71436;SHT31;59251;51.326;12.370;2022-10-16T08:07:52;17.99;85.46
71436;SHT31;59251;51.326;12.370;2022-10-16T08:10:20;18.47;84.29
71436;SHT31;59251;51.326;12.370;2022-10-16T08:12:45;18.41;84.35
71436;SHT31;59251;51.326;12.370;2022-10-16T08:15:11;18.71;83.33
71436;SHT31;59251;51.326;12.370;2022-10-16T08:17:37;19.09;81.88
71436;SHT31;59251;51.326;12.370;2022-10-16T08:20:02;19.42;81.47
71436;SHT31;59251;51.326;12.370;2022-10-16T08:22:28;19.37;81.66
71436;SHT31;59251;51.326;12.370;2022-10-16T08:24:54;19.30;81.42
71436;SHT31;59251;51.326;12.370;2022-10-16T08:27:19;18.95;82.49
71436;SHT31;59251;51.326;12.370;2022-10-16T08:29:44;18.99;82.01
71436;SHT31;59251;51.326;12.370;2022-10-16T08:32:10;19.03;81.84
71436;SHT31;59251;51.326;12.370;2022-10-16T08:34:35;19.34;81.09
71436;SHT31;59251;51.326;12.370;2022-10-16T08:37:00;18.84;82.08
71436;SHT31;59251;51.326;12.370;2022-10-16T08:39:26;19.19;81.57
71436;SHT31;59251;51.326;12.370;2022-10-16T08:44:58;19.18;80.79
71436;SHT31;59251;51.326;12.370;2022-10-16T08:47:49;19.47;80.39
71436;SHT31;59251;51.326;12.370;2022-10-16T08:50:28;19.42;80.82
71436;SHT31;59251;51.326;12.370;2022-10-16T08:52:55;19.82;79.24
71436;SHT31;59251;51.326;12.370;2022-10-16T08:55:41;19.70;79.43
71436;SHT31;59251;51.326;12.370;2022-10-16T08:58:15;19.90;79.15
71436;SHT31;59251;51.326;12.370;2022-10-16T09:00:42;19.87;78.77
71436;SHT31;59251;51.326;12.370;2022-10-16T09:03:35;19.91;78.28
71436;SHT31;59251;51.326;12.370;2022-10-16T09:09:15;19.92;78.66
71436;SHT31;59251;51.326;12.370;2022-10-16T09:11:56;19.54;79.98
71436;SHT31;59251;51.326;12.370;2022-10-16T09:19:46;19.64;79.55
71436;SHT31;59251;51.326;12.370;2022-10-16T09:22:17;19.70;79.75
71436;SHT31;59251;51.326;12.370;2022-10-16T09:24:43;20.45;77.44
71436;SHT31;59251;51.326;12.370;2022-10-16T09:27:14;19.87;78.52
71436;SHT31;59251;51.326;12.370;2022-10-16T09:29:39;20.42;77.36
71436;SHT31;59251;51.326;12.370;2022-10-16T09:32:15;20.69;76.98
71436;SHT31;59251;51.326;12.370;2022-10-16T09:34:47;20.40;77.83
71436;SHT31;59251;51.326;12.370;2022-10-16T09:37:16;20.73;76.63
71436;SHT31;59251;51.326;12.370;2022-10-16T09:40:00;20.28;78.12
71436;SHT31;59251;51.326;12.370;2022-10-16T09:42:31;20.62;77.06
71436;SHT31;59251;51.326;12.370;2022-10-16T09:44:57;20.40;77.23
71436;SHT31;59251;51.326;12.370;2022-10-16T09:47:25;20.69;76.57
71436;SHT31;59251;51.326;12.370;2022-10-16T09:50:13;20.22;77.97
71436;SHT31;59251;51.326;12.370;2022-10-16T09:52:44;20.47;77.21
71436;SHT31;59251;51.326;12.370;2022-10-16T09:55:17;20.39;77.45
71436;SHT31;59251;51.326;12.370;2022-10-16T09:57:53;20.79;76.86
71436;SHT31;59251;51.326;12.370;2022-10-16T10:00:20;20.86;76.80
71436;SHT31;59251;51.326;12.370;2022-10-16T10:02:46;20.56;77.67
71436;SHT31;59251;51.326;12.370;2022-10-16T10:05:28;20.59;77.41
71436;SHT31;59251;51.326;12.370;2022-10-16T10:07:56;21.46;74.61
71436;SHT31;59251;51.326;12.370;2022-10-16T10:10:28;21.18;75.89
71436;SHT31;59251;51.326;12.370;2022-10-16T10:12:54;20.88;75.58
71436;SHT31;59251;51.326;12.370;2022-10-16T10:15:21;21.05;75.51
71436;SHT31;59251;51.326;12.370;2022-10-16T10:17:51;21.01;76.11
71436;SHT31;59251;51.326;12.370;2022-10-16T10:20:36;20.81;76.96
71436;SHT31;59251;51.326;12.370;2022-10-16T10:23:21;20.91;76.30
71436;SHT31;59251;51.326;12.370;2022-10-16T10:25:59;20.86;76.63
71436;SHT31;59251;51.326;12.370;2022-10-16T10:37:20;21.18;76.61
71436;SHT31;59251;51.326;12.370;2022-10-16T10:40:02;21.01;76.27
71436;SHT31;59251;51.326;12.370;2022-10-16T10:42:49;21.24;75.46
71436;SHT31;59251;51.326;12.370;2022-10-16T10:53:44;20.55;76.68
71436;SHT31;59251;51.326;12.370;2022-10-16T11:01:17;20.90;76.02
71436;SHT31;59251;51.326;12.370;2022-10-16T11:04:23;21.05;75.86
71436;SHT31;59251;51.326;12.370;2022-10-16T11:06:58;20.83;77.04
71436;SHT31;59251;51.326;12.370;2022-10-16T11:09:25;20.72;76.92
71436;SHT31;59251;51.326;12.370;2022-10-16T11:11:56;20.90;76.60
71436;SHT31;59251;51.326;12.370;2022-10-16T11:14:31;20.88;76.26
71436;SHT31;59251;51.326;12.370;2022-10-16T11:17:08;21.00;75.82
71436;SHT31;59251;51.326;12.370;2022-10-16T11:19:48;20.94;76.01
71436;SHT31;59251;51.326;12.370;2022-10-16T11:24:50;20.98;76.07
71436;SHT31;59251;51.326;12.370;2022-10-16T11:27:25;20.80;76.42
71436;SHT31;59251;51.326;12.370;2022-10-16T11:29:58;21.11;75.91
71436;SHT31;59251;51.326;12.370;2022-10-16T11:32:29;20.75;76.66
71436;SHT31;59251;51.326;12.370;2022-10-16T11:35:00;21.35;75.45
71436;SHT31;59251;51.326;12.370;2022-10-16T11:37:31;21.39;75.04
71436;SHT31;59251;51.326;12.370;2022-10-16T11:40:16;21.37;75.17
71436;SHT31;59251;51.326;12.370;2022-10-16T11:42:54;21.35;74.97
71436;SHT31;59251;51.326;12.370;2022-10-16T11:45:35;21.31;75.18
71436;SHT31;59251;51.326;12.370;2022-10-16T11:48:12;21.30;75.03
71436;SHT31;59251;51.326;12.370;2022-10-16T11:56:21;21.53;74.76
71436;SHT31;59251;51.326;12.370;2022-10-16T12:01:32;21.53;74.88
71436;SHT31;59251;51.326;12.370;2022-10-16T12:07:03;21.38;75.64
71436;SHT31;59251;51.326;12.370;2022-10-16T12:09:32;21.25;75.35
71436;SHT31;59251;51.326;12.370;2022-10-16T12:11:59;21.56;74.77
71436;SHT31;59251;51.326;12.370;2022-10-16T12:14:36;21.52;75.08
71436;SHT31;59251;51.326;12.370;2022-10-16T12:17:25;21.53;75.03
71436;SHT31;59251;51.326;12.370;2022-10-16T12:19:59;20.84;76.80
71436;SHT31;59251;51.326;12.370;2022-10-16T12:22:30;21.12;76.01
71436;SHT31;59251;51.326;12.370;2022-10-16T12:24:56;20.50;77.71
71436;SHT31;59251;51.326;12.370;2022-10-16T12:27:29;20.77;77.27
71436;SHT31;59251;51.326;12.370;2022-10-16T12:30:05;20.47;78.15
71436;SHT31;59251;51.326;12.370;2022-10-16T12:32:37;20.47;78.68
71436;SHT31;59251;51.326;12.370;2022-10-16T12:35:05;20.84;77.39
71436;SHT31;59251;51.326;12.370;2022-10-16T12:37:37;21.31;76.38
71436;SHT31;59251;51.326;12.370;2022-10-16T12:40:28;22.30;73.77
71436;SHT31;59251;51.326;12.370;2022-10-16T12:42:54;21.78;74.68
71436;SHT31;59251;51.326;12.370;2022-10-16T12:47:52;21.46;75.65
71436;SHT31;59251;51.326;12.370;2022-10-16T12:50:38;21.12;76.67
71436;SHT31;59251;51.326;12.370;2022-10-16T12:53:25;21.05;76.90
71436;SHT31;59251;51.326;12.370;2022-10-16T12:56:04;20.83;77.69
71436;SHT31;59251;51.326;12.370;2022-10-16T12:58:56;20.69;77.62
71436;SHT31;59251;51.326;12.370;2022-10-16T13:01:34;20.76;77.87
71436;SHT31;59251;51.326;12.370;2022-10-16T13:07:10;20.83;77.31
71436;SHT31;59251;51.326;12.370;2022-10-16T13:12:42;21.18;76.22
71436;SHT31;59251;51.326;12.370;2022-10-16T13:18:19;21.28;75.68
71436;SHT31;59251;51.326;12.370;2022-10-16T13:29:23;23.37;69.46
71436;SHT31;59251;51.326;12.370;2022-10-16T13:31:49;22.44;71.75
71436;SHT31;59251;51.326;12.370;2022-10-16T13:34:18;23.77;68.27
71436;SHT31;59251;51.326;12.370;2022-10-16T13:36:49;25.35;64.62
71436;SHT31;59251;51.326;12.370;2022-10-16T13:39:29;25.26;63.14
71436;SHT31;59251;51.326;12.370;2022-10-16T13:42:13;24.68;65.70
71436;SHT31;59251;51.326;12.370;2022-10-16T13:44:47;25.52;64.20
71436;SHT31;59251;51.326;12.370;2022-10-16T13:47:22;25.26;64.30
71436;SHT31;59251;51.326;12.370;2022-10-16T13:50:02;24.56;65.50
71436;SHT31;59251;51.326;12.370;2022-10-16T13:52:28;23.58;67.52
71436;SHT31;59251;51.326;12.370;2022-10-16T13:54:54;22.57;71.18
71436;SHT31;59251;51.326;12.370;2022-10-16T13:57:22;23.02;69.62
71436;SHT31;59251;51.326;12.370;2022-10-16T13:59:48;22.89;69.91
71436;SHT31;59251;51.326;12.370;2022-10-16T14:04:42;22.62;70.63
71436;SHT31;59251;51.326;12.370;2022-10-16T14:07:20;21.83;73.45
71436;SHT31;59251;51.326;12.370;2022-10-16T14:09:49;22.00;72.81
71436;SHT31;59251;51.326;12.370;2022-10-16T14:12:15;21.75;73.57
71436;SHT31;59251;51.326;12.370;2022-10-16T14:14:43;21.80;73.46
71436;SHT31;59251;51.326;12.370;2022-10-16T14:17:25;21.53;74.46
71436;SHT31;59251;51.326;12.370;2022-10-16T14:19:54;20.80;76.04
71436;SHT31;59251;51.326;12.370;2022-10-16T14:22:34;21.51;74.48
71436;SHT31;59251;51.326;12.370;2022-10-16T14:25:01;21.03;75.75
71436;SHT31;59251;51.326;12.370;2022-10-16T14:27:33;20.90;76.31
71436;SHT31;59251;51.326;12.370;2022-10-16T14:30:21;20.62;77.00
71436;SHT31;59251;51.326;12.370;2022-10-16T14:32:56;20.52;77.58
71436;SHT31;59251;51.326;12.370;2022-10-16T14:35:40;20.46;77.96
71436;SHT31;59251;51.326;12.370;2022-10-16T14:38:14;20.53;77.70
71436;SHT31;59251;51.326;12.370;2022-10-16T14:40:47;20.62;77.52
71436;SHT31;59251;51.326;12.370;2022-10-16T14:43:29;21.01;76.73
71436;SHT31;59251;51.326;12.370;2022-10-16T14:45:56;20.72;77.81
71436;SHT31;59251;51.326;12.370;2022-10-16T14:48:22;20.62;78.37
71436;SHT31;59251;51.326;12.370;2022-10-16T14:50:49;20.76;77.25
71436;SHT31;59251;51.326;12.370;2022-10-16T14:53:14;20.40;78.45
71436;SHT31;59251;51.326;12.370;2022-10-16T14:55:40;20.73;77.56
71436;SHT31;59251;51.326;12.370;2022-10-16T14:58:17;21.03;77.47
71436;SHT31;59251;51.326;12.370;2022-10-16T15:00:44;21.22;76.32
71436;SHT31;59251;51.326;12.370;2022-10-16T15:03:10;21.37;76.22
71436;SHT31;59251;51.326;12.370;2022-10-16T15:05:35;21.53;75.71
71436;SHT31;59251;51.326;12.370;2022-10-16T15:08:01;21.66;75.10
71436;SHT31;59251;51.326;12.370;2022-10-16T15:10:27;21.11;77.49
71436;SHT31;59251;51.326;12.370;2022-10-16T15:12:54;20.55;78.86
71436;SHT31;59251;51.326;12.370;2022-10-16T15:17:48;21.18;77.51
71436;SHT31;59251;51.326;12.370;2022-10-16T15:20:14;21.48;76.40
71436;SHT31;59251;51.326;12.370;2022-10-16T15:22:39;20.95;77.90
71436;SHT31;59251;51.326;12.370;2022-10-16T15:27:58;19.92;81.33
71436;SHT31;59251;51.326;12.370;2022-10-16T15:30:23;19.50;82.99
71436;SHT31;59251;51.326;12.370;2022-10-16T15:32:49;19.45;83.34
71436;SHT31;59251;51.326;12.370;2022-10-16T15:35:14;19.88;81.67
71436;SHT31;59251;51.326;12.370;2022-10-16T15:37:39;19.90;81.80
71436;SHT31;59251;51.326;12.370;2022-10-16T15:40:05;19.45;83.04
71436;SHT31;59251;51.326;12.370;2022-10-16T15:42:31;19.24;83.91
71436;SHT31;59251;51.326;12.370;2022-10-16T15:44:56;19.23;83.92
71436;SHT31;59251;51.326;12.370;2022-10-16T15:47:21;19.20;84.07
71436;SHT31;59251;51.326;12.370;2022-10-16T15:49:47;19.30;83.51
71436;SHT31;59251;51.326;12.370;2022-10-16T15:52:12;19.23;83.92
71436;SHT31;59251;51.326;12.370;2022-10-16T15:54:37;19.37;83.71
71436;SHT31;59251;51.326;12.370;2022-10-16T15:57:03;19.26;83.67
71436;SHT31;59251;51.326;12.370;2022-10-16T15:59:28;19.29;83.65
71436;SHT31;59251;51.326;12.370;2022-10-16T16:01:53;19.42;83.05
71436;SHT31;59251;51.326;12.370;2022-10-16T16:04:19;19.37;83.72
71436;SHT31;59251;51.326;12.370;2022-10-16T16:06:44;19.13;84.35
71436;SHT31;59251;51.326;12.370;2022-10-16T16:09:12;19.23;83.84
71436;SHT31;59251;51.326;12.370;2022-10-16T16:11:37;19.42;83.44
71436;SHT31;59251;51.326;12.370;2022-10-16T16:14:05;19.45;83.40
71436;SHT31;59251;51.326;12.370;2022-10-16T16:16:30;19.19;84.03
71436;SHT31;59251;51.326;12.370;2022-10-16T16:18:58;19.15;84.19
71436;SHT31;59251;51.326;12.370;2022-10-16T16:21:24;18.96;85.24
71436;SHT31;59251;51.326;12.370;2022-10-16T16:23:49;18.88;85.79
71436;SHT31;59251;51.326;12.370;2022-10-16T16:26:22;18.75;86.43
71436;SHT31;59251;51.326;12.370;2022-10-16T16:28:52;18.72;86.76
71436;SHT31;59251;51.326;12.370;2022-10-16T16:31:18;18.71;86.52
71436;SHT31;59251;51.326;12.370;2022-10-16T16:33:44;18.81;85.92
71436;SHT31;59251;51.326;12.370;2022-10-16T16:36:10;18.72;86.21
71436;SHT31;59251;51.326;12.370;2022-10-16T16:38:35;18.54;86.75
71436;SHT31;59251;51.326;12.370;2022-10-16T16:41:14;18.48;87.23
71436;SHT31;59251;51.326;12.370;2022-10-16T16:43:40;18.56;86.89
71436;SHT31;59251;51.326;12.370;2022-10-16T16:46:05;18.32;87.80
71436;SHT31;59251;51.326;12.370;2022-10-16T16:48:31;18.36;87.81
71436;SHT31;59251;51.326;12.370;2022-10-16T16:51:04;18.40;87.46
71436;SHT31;59251;51.326;12.370;2022-10-16T16:53:30;18.48;87.09
71436;SHT31;59251;51.326;12.370;2022-10-16T16:55:55;18.36;87.52
71436;SHT31;59251;51.326;12.370;2022-10-16T16:58:25;18.38;87.71
71436;SHT31;59251;51.326;12.370;2022-10-16T17:00:50;18.50;87.48